Time;durP1;ratioP1;P1;durP2;ratioP2;P2;SDS_P1;SDS_P2;PMS_P1;PMS_P2;Temp;Humidity;BMP_temperature;BMP_pressure;BME280_temperature;BME280_humidity;BME280_pressure;Samples;Min_cycle;Max_cycle;Signal;HPM_P1;HPM_P2
2022/05/23 00:03:27;;;;;;;2.80;1.80;;;;;;;17.22;66.88;99005.13;12208815;19;20011;-82
2022/05/23 00:07:32;;;;;;;3.15;1.60;;;;;;;17.26;66.80;99013.66;12220905;19;20010;-86
2022/05/23 00:11:34;;;;;;;5.85;1.80;;;;;;;17.31;66.18;99005.16;12214419;19;20474;-86
2022/05/23 00:15:37;;;;;;;5.43;2.05;;;;;;;17.34;66.06;99003.72;12190378;19;20550;-84
2022/05/23 00:19:40;;;;;;;4.22;1.45;;;;;;;17.39;66.18;99004.41;12204766;19;20033;-83
2022/05/23 00:23:43;;;;;;;3.72;1.60;;;;;;;17.44;66.46;99003.50;12212494;19;20014;-83
2022/05/23 00:27:46;;;;;;;4.50;1.70;;;;;;;17.41;66.70;98991.03;12191206;19;20070;-82
2022/05/23 00:36:11;;;;;;;5.80;1.70;;;;;;;17.52;65.79;98980.47;12215659;19;20074;-85
2022/05/23 00:40:37;;;;;;;3.88;1.65;;;;;;;17.54;65.66;98969.81;12189065;19;20359;-83
2022/05/23 00:44:38;;;;;;;5.03;1.65;;;;;;;17.50;65.70;98960.44;12207380;19;20010;-82
2022/05/23 00:48:40;;;;;;;3.78;2.05;;;;;;;17.54;65.59;98944.75;12185666;19;20010;-83
2022/05/23 00:52:51;;;;;;;4.88;1.70;;;;;;;17.57;65.80;98944.09;12214102;19;20379;-84
2022/05/23 00:56:52;;;;;;;4.65;2.20;;;;;;;17.57;65.51;98941.31;12207529;19;20021;-85
2022/05/23 01:00:59;;;;;;;3.30;1.83;;;;;;;17.56;64.96;98931.34;12197496;19;20015;-83
2022/05/23 01:05:00;;;;;;;5.13;1.45;;;;;;;17.56;65.34;98925.75;12212432;19;20567;-85
2022/05/23 01:09:03;;;;;;;5.45;2.10;;;;;;;17.54;64.69;98923.28;12209145;19;20373;-83
2022/05/23 01:13:06;;;;;;;;;;;;;;;17.47;64.85;98919.31;12188650;19;20018;-83
2022/05/23 01:17:08;;;;;;;2.60;1.30;;;;;;;17.38;64.84;98919.25;12207047;19;19915;-81
2022/05/23 01:21:22;;;;;;;8.15;1.92;;;;;;;17.20;65.30;98914.69;12206397;19;20109;-84
2022/05/23 01:25:35;;;;;;;3.08;1.50;;;;;;;17.03;66.25;98905.03;12189360;19;20011;-83
2022/05/23 01:29:37;;;;;;;3.22;1.60;;;;;;;16.86;67.73;98888.19;12198670;19;20014;-81
2022/05/23 01:33:48;;;;;;;3.28;1.40;;;;;;;16.70;68.25;98878.53;12178712;19;20013;-82
2022/05/23 01:37:50;;;;;;;5.00;2.10;;;;;;;16.59;68.28;98869.59;12208751;19;20007;-81
2022/05/23 01:42:02;;;;;;;3.28;1.73;;;;;;;16.50;68.80;98858.38;12210253;19;20011;-81
2022/05/23 01:46:03;;;;;;;5.20;2.00;;;;;;;16.45;68.67;98846.53;12183958;19;20045;-81
2022/05/23 01:50:24;;;;;;;3.35;1.88;;;;;;;16.43;68.64;98857.19;12208442;19;20082;-80
2022/05/23 01:54:39;;;;;;;2.58;1.83;;;;;;;16.48;68.10;98857.03;12185727;19;20025;-83
2022/05/23 02:03:02;;;;;;;4.35;1.70;;;;;;;16.62;67.53;98843.94;12213341;19;19959;-86
2022/05/23 02:07:05;;;;;;;3.30;1.70;;;;;;;16.60;68.14;98829.53;12178341;19;20010;-83
2022/05/23 02:11:10;;;;;;;6.10;1.92;;;;;;;16.64;67.64;98830.53;12209656;19;20010;-86
2022/05/23 02:15:12;;;;;;;4.60;1.77;;;;;;;16.70;67.45;98832.06;12208766;19;20341;-84
2022/05/23 02:19:37;;;;;;;4.28;1.90;;;;;;;16.77;66.99;98824.13;12179561;19;20021;-84
2022/05/23 02:23:56;;;;;;;3.33;2.00;;;;;;;16.75;67.63;98817.22;12203351;19;20014;-84
2022/05/23 02:27:58;;;;;;;4.93;2.08;;;;;;;16.75;68.08;98812.47;12191624;19;20029;-82
2022/05/23 02:32:10;;;;;;;2.95;1.92;;;;;;;16.81;67.26;98808.47;12213655;19;20370;-83
2022/05/23 02:36:12;;;;;;;4.28;2.00;;;;;;;16.87;67.58;98802.78;12205439;19;20011;-84
2022/05/23 02:40:15;;;;;;;2.88;1.80;;;;;;;16.89;67.64;98792.97;12193329;19;20114;-82
2022/05/23 02:44:17;;;;;;;4.50;1.70;;;;;;;16.93;66.87;98791.22;12212766;19;20009;-82
2022/05/23 02:48:18;;;;;;;3.63;1.80;;;;;;;16.99;66.34;98775.22;12210085;19;20022;-83
2022/05/23 02:52:21;;;;;;;5.35;1.80;;;;;;;17.07;65.53;98780.84;12189439;19;20263;-81
2022/05/23 02:56:51;;;;;;;4.55;2.15;;;;;;;17.18;65.40;98774.97;12212787;19;20033;-84
2022/05/23 03:00:56;;;;;;;2.95;1.60;;;;;;;17.15;65.44;98767.28;12202093;19;20011;-82
2022/05/23 03:05:04;;;;;;;3.50;1.60;;;;;;;17.16;64.97;98763.34;12214009;19;20011;-81
2022/05/23 03:09:06;;;;;;;3.25;2.33;;;;;;;17.13;65.18;98752.84;12213647;19;20376;-80
2022/05/23 03:13:09;;;;;;;4.28;1.75;;;;;;;17.14;65.48;98744.19;12192221;19;20464;-81
2022/05/23 03:17:11;;;;;;;2.53;1.73;;;;;;;17.14;65.51;98740.59;12201310;19;20460;-82
2022/05/23 03:26:58;;;;;;;3.35;1.80;;;;;;;17.13;65.77;98736.97;12210449;19;20403;-81
2022/05/23 03:30:04;;;;;;;4.25;2.10;;;;;;;17.11;66.27;98733.69;12207439;19;20033;-83
2022/05/23 03:34:16;;;;;;;6.68;2.10;;;;;;;17.07;65.50;98732.66;12187214;19;20011;-82
2022/05/23 03:38:20;;;;;;;3.03;2.00;;;;;;;17.11;65.20;98766.28;12203935;19;20091;-80
2022/05/23 03:42:22;;;;;;;3.80;1.70;;;;;;;17.15;64.88;98759.75;12216977;19;20112;-82
2022/05/23 03:46:32;;;;;;;4.35;2.22;;;;;;;17.19;64.22;98773.84;12195391;19;20010;-83
2022/05/23 03:50:36;;;;;;;5.43;2.55;;;;;;;17.29;63.92;98795.84;12210782;19;20010;-82
2022/05/23 03:54:40;;;;;;;4.35;2.00;;;;;;;17.31;63.67;98813.03;12190520;19;20098;-82
2022/05/23 03:58:42;;;;;;;6.85;1.98;;;;;;;17.31;63.94;98832.53;12214819;19;20363;-88
2022/05/23 04:02:59;;;;;;;4.95;2.05;;;;;;;17.30;64.08;98865.13;12204639;19;20094;-84
2022/05/23 04:07:05;;;;;;;5.43;2.17;;;;;;;17.29;64.33;98873.81;12186341;19;20030;-83
2022/05/23 04:11:21;;;;;;;3.92;2.28;;;;;;;17.22;65.72;98879.84;12212025;19;20010;-81
2022/05/23 04:15:24;;;;;;;3.50;2.05;;;;;;;17.15;66.83;98898.91;12217206;19;20405;-83
2022/05/23 04:19:27;;;;;;;4.63;2.08;;;;;;;17.13;67.32;98933.78;12189712;19;20010;-82
2022/05/23 04:23:49;;;;;;;6.60;1.90;;;;;;;17.07;66.82;98970.09;12207957;19;20003;-83
2022/05/23 04:27:51;;;;;;;5.05;1.88;;;;;;;17.13;66.43;98969.97;12181514;19;20015;-82
2022/05/23 04:31:53;;;;;;;5.40;2.47;;;;;;;17.16;68.16;98978.50;12204942;19;20459;-84
2022/05/23 04:36:04;;;;;;;7.25;3.13;;;;;;;17.05;71.26;98983.50;12205428;19;20031;-83
2022/05/23 04:40:09;;;;;;;5.20;2.95;;;;;;;16.84;73.92;98977.56;12186417;19;20082;-82
2022/05/23 04:44:12;;;;;;;5.40;2.80;;;;;;;16.62;75.67;98960.75;12217103;19;20030;-84
2022/05/23 04:52:35;;;;;;;9.85;3.55;;;;;;;16.38;76.41;98928.44;12193603;19;20102;-82
2022/05/23 04:56:38;;;;;;;9.15;2.92;;;;;;;16.35;76.70;98925.44;12205718;19;20015;-84
2022/05/23 05:00:47;;;;;;;7.25;3.10;;;;;;;16.30;77.00;98898.59;12192234;19;20029;-84
2022/05/23 05:04:50;;;;;;;5.78;2.95;;;;;;;16.25;78.09;98886.75;12214201;19;20463;-85
2022/05/23 05:08:52;;;;;;;5.05;3.00;;;;;;;16.20;78.71;98876.56;12196584;19;20014;-84
2022/05/23 05:12:56;;;;;;;7.32;3.45;;;;;;;16.06;81.88;98890.47;12203449;19;20033;-84
2022/05/23 05:16:58;;;;;;;8.45;3.40;;;;;;;15.85;85.15;98872.53;12212399;19;20015;-81
2022/05/23 05:21:05;;;;;;;7.82;3.65;;;;;;;15.68;90.27;98809.28;12203846;19;20002;-81
2022/05/23 05:25:27;;;;;;;8.40;3.78;;;;;;;15.50;94.06;98736.00;12184468;19;20022;-82
2022/05/23 05:29:40;;;;;;;;;;;;;;;15.27;100.00;98672.06;12195774;19;20491;-80
2022/05/23 05:33:52;;;;;;;7.07;3.78;;;;;;;15.20;97.60;98648.63;12166491;19;20455;-80
2022/05/23 05:38:03;;;;;;;5.28;3.67;;;;;;;15.17;99.84;98611.22;12182125;19;20370;-78
2022/05/23 05:42:11;;;;;;;6.45;3.95;;;;;;;15.24;100.00;98569.19;12207050;19;20014;-79
2022/05/23 05:46:25;;;;;;;7.93;4.40;;;;;;;15.37;100.00;98554.44;12188502;19;20014;-79
2022/05/23 05:50:38;;;;;;;5.60;3.17;;;;;;;15.43;100.00;98532.94;12202626;19;20007;-80
2022/05/23 05:54:48;;;;;;;6.88;3.38;;;;;;;15.61;100.00;98556.13;12181688;19;20054;-79
2022/05/23 05:58:50;;;;;;;4.68;3.17;;;;;;;15.84;96.71;98559.78;12205484;19;20006;-80
2022/05/23 06:02:53;;;;;;;8.35;4.50;;;;;;;15.98;97.06;98556.94;12208797;19;20006;-81
2022/05/23 06:11:28;;;;;;;5.32;3.42;;;;;;;16.32;95.15;98551.59;12208889;19;20029;-80
2022/05/23 06:15:40;;;;;;;6.80;3.30;;;;;;;16.56;93.75;98551.22;12185914;19;20010;-81
2022/05/23 06:19:46;;;;;;;6.88;3.15;;;;;;;16.74;93.07;98563.25;12202216;19;20010;-81
2022/05/23 06:23:54;;;;;;;5.95;3.30;;;;;;;16.90;93.46;98562.88;12206425;19;20017;-80
2022/05/23 06:28:04;;;;;;;4.13;3.05;;;;;;;16.99;91.59;98570.09;12178367;19;20010;-82
2022/05/23 06:32:07;;;;;;;6.97;3.83;;;;;;;17.03;91.38;98581.41;12215204;19;20066;-82
2022/05/23 06:36:11;;;;;;;4.75;3.15;;;;;;;17.04;91.14;98577.47;12213927;19;20006;-85
2022/05/23 06:40:15;;;;;;;6.70;3.05;;;;;;;17.13;90.78;98575.53;12193931;19;20049;-83
2022/05/23 06:44:36;;;;;;;7.65;4.00;;;;;;;17.19;91.56;98567.84;12216812;19;20038;-83
2022/05/23 06:48:56;;;;;;;8.75;2.92;;;;;;;17.31;91.14;98571.66;12192778;19;20023;-84
2022/05/23 06:53:13;;;;;;;5.55;2.42;;;;;;;17.56;89.84;98579.56;12212945;19;20054;-83
2022/05/23 06:57:34;;;;;;;9.07;3.35;;;;;;;17.77;89.58;98573.03;12197083;19;20480;-83
2022/05/23 07:01:38;;;;;;;6.38;3.15;;;;;;;18.04;89.82;98587.78;12221153;19;20520;-84
2022/05/23 07:14:47;;;;;;;4.93;2.47;;;;;;;19.22;85.04;98586.47;12218053;19;20010;-85
2022/05/23 07:18:51;;;;;;;6.22;2.72;;;;;;;19.46;83.05;98577.47;12197328;19;20573;-85
2022/05/23 07:23:04;;;;;;;3.90;2.35;;;;;;;19.66;83.13;98590.66;12222200;19;20025;-84
2022/05/23 07:27:12;;;;;;;4.90;3.08;;;;;;;19.85;84.80;98600.56;12213960;19;20015;-86
2022/05/23 07:31:16;;;;;;;5.53;2.33;;;;;;;20.04;80.48;98620.44;12198218;19;20011;-86
2022/05/23 07:35:18;;;;;;;4.10;2.70;;;;;;;20.20;78.95;98617.88;12214403;19;20010;-86
2022/05/23 07:39:20;;;;;;;6.45;3.20;;;;;;;20.30;76.01;98634.22;12209010;19;20011;-85
2022/05/23 07:43:27;;;;;;;10.45;3.85;;;;;;;20.55;76.28;98629.53;12196226;19;20006;-85
2022/05/23 07:47:35;;;;;;;12.07;3.75;;;;;;;20.76;76.67;98634.28;12210414;19;20090;-85
2022/05/23 07:51:56;;;;;;;10.73;3.78;;;;;;;20.99;75.53;98640.28;12191568;19;20015;-85
2022/05/23 08:00:34;;;;;;;7.63;3.60;;;;;;;21.26;73.07;98645.19;12192701;19;20509;-85
2022/05/23 08:04:44;;;;;;;25.33;5.45;;;;;;;21.29;72.98;98641.69;12215437;19;20011;-84
2022/05/23 08:08:46;;;;;;;27.98;6.10;;;;;;;21.32;73.73;98649.41;12212161;19;20014;-84
2022/05/23 08:12:54;;;;;;;15.73;4.97;;;;;;;21.34;73.16;98635.88;12205196;19;20112;-84
2022/05/23 08:16:58;;;;;;;10.88;5.78;;;;;;;21.50;72.51;98649.22;12212778;19;20009;-82
2022/05/23 08:21:16;;;;;;;8.90;4.03;;;;;;;21.57;72.37;98629.84;12213460;19;20006;-84
2022/05/23 08:25:19;;;;;;;7.32;4.22;;;;;;;21.87;71.57;98646.38;12191308;19;20006;-84
2022/05/23 08:29:31;;;;;;;19.20;5.27;;;;;;;22.11;70.81;98639.91;12209300;19;20007;-86
2022/05/23 08:33:40;;;;;;;9.63;5.95;;;;;;;22.01;70.60;98629.97;12187247;19;20021;-84
2022/05/23 08:37:58;;;;;;;11.48;5.82;;;;;;;21.93;70.86;98622.53;12208903;19;20023;-83
2022/05/23 08:42:39;;;;;;;7.63;6.18;;;;;;;22.03;70.92;98633.25;12186369;19;20100;-83
2022/05/23 08:46:59;;;;;;;9.48;5.75;;;;;;;22.37;70.05;98628.25;12208165;19;20395;-82
2022/05/23 08:51:15;;;;;;;13.38;6.55;;;;;;;22.44;68.26;98629.28;12205421;19;20015;-82
2022/05/23 08:55:34;;;;;;;8.90;6.22;;;;;;;22.15;69.39;98624.78;12181356;19;20028;-82
2022/05/23 09:00:04;;;;;;;12.40;6.40;;;;;;;22.08;69.50;98635.81;12206259;19;20352;-82
2022/05/23 09:04:16;;;;;;;10.18;6.57;;;;;;;22.26;69.49;98630.75;12186166;19;20003;-83
2022/05/23 09:08:22;;;;;;;8.02;5.05;;;;;;;22.83;68.51;98642.78;12205744;19;20014;-83
2022/05/23 09:12:29;;;;;;;10.68;5.72;;;;;;;23.20;66.26;98624.53;12185122;19;20025;-83
2022/05/23 09:16:32;;;;;;;;;;;;;;;23.19;65.72;98628.50;12210094;19;20023;-83
2022/05/23 09:20:38;;;;;;;;;;;;;;;23.23;65.98;98633.38;12207431;19;19933;-82
2022/05/23 09:24:45;;;;;;;8.30;5.68;;;;;;;23.31;65.31;98649.25;12186862;19;19926;-82
2022/05/23 09:28:50;;;;;;;11.82;5.82;;;;;;;23.23;66.04;98644.63;12205030;19;20025;-84
2022/05/23 09:32:56;;;;;;;12.25;6.93;;;;;;;23.38;64.70;98649.44;12206225;19;20028;-82
2022/05/23 09:37:01;;;;;;;11.68;6.80;;;;;;;23.22;65.07;98641.00;12178737;19;20020;-83
2022/05/23 09:41:04;;;;;;;9.05;5.88;;;;;;;23.34;64.80;98640.09;12200345;19;20007;-82
2022/05/23 09:49:55;;;;;;;10.02;6.80;;;;;;;23.84;63.99;98624.47;12184436;19;20010;-83
2022/05/23 09:54:02;;;;;;;11.75;6.90;;;;;;;24.18;62.17;98621.97;12205969;19;20019;-81
2022/05/23 09:58:11;;;;;;;11.32;6.80;;;;;;;23.91;62.86;98596.47;12192467;19;20011;-82
2022/05/23 10:02:15;;;;;;;16.77;7.32;;;;;;;24.04;62.31;98600.78;12204390;19;19998;-86
2022/05/23 10:06:17;;;;;;;8.48;5.85;;;;;;;24.31;60.25;98590.50;12203278;19;20039;-84
2022/05/23 10:10:20;;;;;;;8.20;5.80;;;;;;;24.55;59.88;98582.94;12186230;19;20014;-84
2022/05/23 10:14:46;;;;;;;8.38;4.80;;;;;;;24.78;59.23;98577.34;12216280;19;20372;-83
2022/05/23 10:18:55;;;;;;;8.52;5.65;;;;;;;24.95;59.80;98584.47;12178948;19;20036;-84
2022/05/23 10:23:00;;;;;;;10.45;6.80;;;;;;;25.05;59.65;98580.22;12201345;19;20007;-83
2022/05/23 10:27:06;;;;;;;8.27;5.68;;;;;;;25.45;58.38;98580.50;12210491;19;20007;-84
2022/05/23 10:31:17;;;;;;;9.63;5.43;;;;;;;25.99;55.02;98569.19;12184008;19;20472;-84
2022/05/23 10:35:28;;;;;;;7.97;4.35;;;;;;;26.54;54.95;98556.19;12197151;19;20026;-82
2022/05/23 10:44:01;;;;;;;6.80;3.13;;;;;;;27.47;51.26;98542.06;12217315;19;20457;-82
2022/05/23 10:48:20;;;;;;;4.68;3.00;;;;;;;27.28;49.49;98545.97;12208689;19;20035;-82
2022/05/23 10:52:41;;;;;;;6.30;2.42;;;;;;;27.40;48.54;98542.03;12183226;19;20003;-84
2022/05/23 10:57:06;;;;;;;3.83;2.50;;;;;;;27.71;46.74;98518.75;12206552;19;20067;-81
2022/05/23 11:01:36;;;;;;;6.60;2.70;;;;;;;27.88;47.82;98520.09;12185935;19;20011;-81
2022/05/23 11:05:52;;;;;;;5.35;2.33;;;;;;;27.68;46.37;98511.06;12195412;19;20532;-82
2022/05/23 11:10:19;;;;;;;4.78;2.47;;;;;;;27.33;46.30;98503.16;12169986;19;20782;-81
2022/05/23 11:14:56;;;;;;;3.67;2.13;;;;;;;26.86;47.21;98498.34;12193946;19;20010;-83
2022/05/23 11:18:58;;;;;;;5.85;2.40;;;;;;;26.43;48.05;98490.25;12180689;19;20010;-83
2022/05/23 11:23:14;;;;;;;6.27;2.40;;;;;;;26.28;48.70;98472.34;12212218;19;20073;-83
2022/05/23 11:36:10;;;;;;;4.90;2.90;;;;;;;26.19;49.57;98477.50;12210985;19;20019;-82
2022/05/23 11:40:27;;;;;;;4.93;2.60;;;;;;;26.02;49.39;98487.38;12189629;19;20007;-83
2022/05/23 11:44:41;;;;;;;3.55;2.50;;;;;;;26.13;50.04;98476.22;12212898;19;20518;-84
2022/05/23 11:48:50;;;;;;;5.97;3.00;;;;;;;26.35;49.32;98460.31;12192251;19;20011;-83
2022/05/23 11:53:18;;;;;;;8.88;3.00;;;;;;;26.64;50.26;98450.13;12218110;19;20019;-84
2022/05/23 11:57:46;;;;;;;5.15;2.70;;;;;;;26.64;50.22;98438.03;12220485;19;20021;-83
2022/05/23 12:02:20;;;;;;;6.78;3.05;;;;;;;26.25;50.76;98447.72;12107664;19;2004358;-85
2022/05/23 12:06:22;;;;;;;7.43;3.00;;;;;;;26.34;51.20;98431.28;12205226;19;20022;-83
2022/05/23 12:10:28;;;;;;;5.40;2.70;;;;;;;26.70;50.64;98417.47;12190169;19;20374;-85
2022/05/23 12:14:32;;;;;;;9.00;3.03;;;;;;;26.80;49.96;98398.97;12210862;19;20030;-84
2022/05/23 12:18:39;;;;;;;4.45;2.65;;;;;;;26.76;49.99;98393.31;12186193;19;20010;-83
2022/05/23 12:23:15;;;;;;;4.95;3.00;;;;;;;26.69;50.25;98390.44;12207816;19;20007;-85
2022/05/23 12:27:30;;;;;;;6.97;3.50;;;;;;;26.69;50.88;98407.41;12209740;19;20417;-84
2022/05/23 12:32:17;;;;;;;7.05;2.65;;;;;;;26.66;51.65;98427.94;12177253;19;20011;-83
2022/05/23 12:36:26;;;;;;;8.30;3.20;;;;;;;26.49;51.86;98431.41;12212742;19;20023;-85
2022/05/23 12:40:35;;;;;;;4.07;2.88;;;;;;;26.29;52.61;98417.50;12193692;19;20002;-83
2022/05/23 12:45:02;;;;;;;6.93;3.75;;;;;;;26.07;53.76;98415.69;12215217;19;20010;-85
2022/05/23 12:49:10;;;;;;;6.38;3.25;;;;;;;25.99;55.11;98402.69;12189229;19;20010;-84
2022/05/23 12:53:33;;;;;;;9.15;3.60;;;;;;;25.80;55.81;98401.66;12203153;19;20010;-82
2022/05/23 12:58:07;;;;;;;6.50;3.33;;;;;;;25.51;56.40;98382.78;12190558;19;20018;-83
2022/05/23 13:02:30;;;;;;;10.60;3.83;;;;;;;25.48;56.53;98369.44;12211310;19;20022;-82
2022/05/23 13:06:54;;;;;;;7.68;3.65;;;;;;;25.54;56.71;98363.06;12178362;19;20032;-82
2022/05/23 13:11:10;;;;;;;7.32;3.50;;;;;;;26.01;56.10;98360.78;12205682;19;20476;-83
2022/05/23 13:15:23;;;;;;;6.35;3.28;;;;;;;26.58;55.00;98361.28;12216171;19;20028;-84
2022/05/23 13:23:47;;;;;;;6.55;4.10;;;;;;;26.74;54.24;98336.41;12208489;19;20010;-84
2022/05/23 13:27:49;;;;;;;13.25;3.80;;;;;;;26.71;54.14;98327.88;12186668;19;20020;-84
2022/05/23 13:31:57;;;;;;;;;;;;;;;26.64;54.68;98303.22;12208001;19;20019;-82
2022/05/23 13:36:03;;;;;;;5.15;3.97;;;;;;;26.79;54.26;98275.84;12208050;19;19907;-83
2022/05/23 13:40:21;;;;;;;10.15;3.40;;;;;;;26.85;54.72;98285.56;12179340;19;20006;-83
2022/05/23 13:44:35;;;;;;;6.43;3.75;;;;;;;26.99;54.11;98282.81;12205740;19;20031;-83
2022/05/23 13:48:45;;;;;;;8.27;3.35;;;;;;;27.29;53.15;98280.94;12184863;19;20448;-83
2022/05/23 13:52:54;;;;;;;9.60;3.75;;;;;;;27.57;53.32;98275.34;12203354;19;20073;-82
2022/05/23 13:57:03;;;;;;;7.95;3.10;;;;;;;28.09;51.57;98272.22;12213591;19;20011;-83
2022/05/23 14:01:21;;;;;;;7.00;3.78;;;;;;;28.22;49.16;98264.13;12190363;19;20023;-82
2022/05/23 14:05:30;;;;;;;8.13;4.22;;;;;;;29.05;47.57;98257.09;12208732;19;20021;-83
2022/05/23 14:09:34;;;;;;;8.32;4.35;;;;;;;29.74;46.06;98264.81;12183026;19;20006;-84
2022/05/23 14:13:37;;;;;;;8.15;3.83;;;;;;;29.73;45.20;98253.91;12210557;19;20074;-84
2022/05/23 14:17:43;;;;;;;5.72;3.40;;;;;;;29.81;45.12;98238.44;12210490;19;20014;-83
2022/05/23 14:21:45;;;;;;;6.53;3.30;;;;;;;29.81;44.74;98244.09;12190111;19;20023;-82
2022/05/23 14:26:03;;;;;;;6.43;3.72;;;;;;;29.48;44.40;98251.19;12212312;19;20029;-83
2022/05/23 14:30:14;;;;;;;7.88;3.63;;;;;;;28.82;45.48;98252.69;12211254;19;20002;-83
2022/05/23 14:34:27;;;;;;;9.10;3.72;;;;;;;29.12;45.05;98242.06;12188867;19;20466;-83
2022/05/23 14:38:42;;;;;;;8.27;3.58;;;;;;;31.45;40.72;98235.88;12207764;19;22551;-82
2022/05/23 14:42:51;;;;;;;8.82;4.20;;;;;;;32.71;38.79;98230.97;12190452;19;20571;-82
2022/05/23 14:47:00;;;;;;;7.45;4.30;;;;;;;32.08;38.16;98234.53;12198891;19;20006;-84
2022/05/23 14:51:13;;;;;;;10.88;4.72;;;;;;;30.80;39.56;98233.03;12212993;19;20014;-84
2022/05/23 14:55:23;;;;;;;5.88;3.88;;;;;;;29.72;42.19;98207.66;12198662;19;20018;-84
2022/05/23 15:03:59;;;;;;;8.95;3.67;;;;;;;29.45;42.48;98209.47;12201601;19;20574;-83
2022/05/23 15:08:02;;;;;;;8.68;3.80;;;;;;;30.34;41.14;98203.09;12220597;19;20002;-82
2022/05/23 15:12:09;;;;;;;9.32;3.88;;;;;;;31.11;39.24;98204.63;12222880;19;20724;-84
2022/05/23 15:16:29;;;;;;;7.78;4.10;;;;;;;32.55;37.14;98200.31;12199570;19;20010;-83
2022/05/23 15:20:36;;;;;;;7.15;3.78;;;;;;;33.14;35.76;98199.53;12223919;19;20010;-84
2022/05/23 15:24:42;;;;;;;8.15;3.42;;;;;;;31.86;37.49;98185.63;12197921;19;20010;-83
2022/05/23 15:28:50;;;;;;;7.68;3.80;;;;;;;30.66;38.77;98179.16;12223404;19;20007;-82
2022/05/23 15:32:53;;;;;;;7.03;3.40;;;;;;;29.61;40.73;98172.03;12220291;19;20074;-84
2022/05/23 15:36:56;;;;;;;7.07;3.35;;;;;;;28.72;42.54;98154.31;12199338;19;20014;-83
2022/05/23 15:40:57;;;;;;;8.00;3.60;;;;;;;28.44;43.24;98148.75;12226309;19;20081;-83
2022/05/23 15:45:12;;;;;;;5.13;2.75;;;;;;;28.10;43.51;98152.06;12221246;19;20007;-83
2022/05/23 15:49:15;;;;;;;9.75;3.05;;;;;;;27.73;44.22;98144.81;12198205;19;20034;-83
2022/05/23 15:53:20;;;;;;;6.03;2.75;;;;;;;27.25;45.39;98157.31;12221477;19;20010;-83
2022/05/23 16:06:36;;;;;;;7.53;3.70;;;;;;;25.88;50.11;98151.44;12210018;19;20018;-83
2022/05/23 16:16:49;;;;;;;6.40;3.22;;;;;;;25.67;52.56;98135.94;12214869;19;20019;-83
2022/05/23 16:20:55;;;;;;;9.60;3.38;;;;;;;25.96;51.63;98118.44;12216119;19;20009;-83
2022/05/23 16:30:58;;;;;;;6.30;3.13;;;;;;;26.00;52.28;98117.25;12237301;19;20011;-83
2022/05/23 16:39:39;;;;;;;7.20;3.67;;;;;;;25.85;53.07;98098.63;12194403;19;20006;-84
2022/05/23 16:48:45;;;;;;;;;;;;;;;;;;;;;
2022/05/23 16:53:10;;;;;;;12.60;3.63;;;;;;;25.61;54.08;98085.91;12167419;19;20017;-83
2022/05/23 16:57:12;;;;;;;5.93;4.18;;;;;;;25.52;53.86;98079.81;12239866;19;20018;-83
2022/05/23 17:01:17;;;;;;;9.90;3.80;;;;;;;25.27;55.41;98088.88;12191428;19;22128;-85
2022/05/23 17:05:26;;;;;;;26.77;6.18;;;;;;;24.75;62.13;98131.03;12213605;19;20319;-83
2022/05/23 17:09:27;;;;;;;9.48;4.80;;;;;;;23.93;71.97;98134.75;12207624;19;20078;-82
2022/05/23 17:13:30;;;;;;;8.90;4.30;;;;;;;23.66;70.64;98113.03;12202501;19;20010;-82
2022/05/23 17:17:31;;;;;;;10.57;3.83;;;;;;;23.64;71.96;98121.03;12210572;19;20011;-84
2022/05/23 17:21:33;;;;;;;11.20;4.73;;;;;;;23.78;71.79;98128.09;12186858;19;20078;-85
2022/05/23 17:25:38;;;;;;;11.80;4.20;;;;;;;23.85;71.39;98125.38;12209515;19;20353;-86
2022/05/23 17:29:43;;;;;;;14.68;4.38;;;;;;;23.64;72.19;98104.16;12202605;19;20007;-85
2022/05/23 17:33:44;;;;;;;9.03;4.50;;;;;;;23.56;70.01;98108.06;12183483;19;20360;-85
2022/05/23 17:37:49;;;;;;;5.28;3.80;;;;;;;23.52;70.52;98112.00;12213456;19;20031;-87
2022/05/23 17:41:53;;;;;;;7.40;3.20;;;;;;;23.45;70.34;98112.72;12210418;19;20025;-85
2022/05/23 17:45:55;;;;;;;7.80;3.80;;;;;;;23.35;69.12;98122.59;12188383;19;20347;-86
2022/05/23 17:49:58;;;;;;;;;;;;;;;23.25;69.65;98119.59;12207160;19;20007;-86
2022/05/23 17:54:00;;;;;;;7.55;4.05;;;;;;;23.17;69.86;98118.63;12208994;19;19953;-85
2022/05/23 17:58:02;;;;;;;10.68;4.70;;;;;;;23.06;70.99;98112.84;12194775;19;20472;-85
2022/05/23 18:02:06;;;;;;;11.80;4.65;;;;;;;23.01;70.52;98107.53;12217003;19;20007;-84
2022/05/23 18:06:08;;;;;;;9.00;4.30;;;;;;;22.94;71.93;98098.97;12214460;19;20006;-84
2022/05/23 18:10:11;;;;;;;9.73;4.67;;;;;;;22.82;72.87;98104.75;12191248;19;20015;-85
2022/05/23 18:23:06;;;;;;;10.20;3.65;;;;;;;22.56;72.86;98106.28;12215791;19;20442;-85
2022/05/23 18:27:10;;;;;;;7.80;4.00;;;;;;;22.51;73.26;98098.13;12218385;19;20516;-85
2022/05/23 18:31:13;;;;;;;13.38;4.35;;;;;;;22.48;72.99;98098.88;12202477;19;20041;-86
2022/05/23 18:35:15;;;;;;;8.90;4.15;;;;;;;22.47;72.34;98145.78;12223441;19;20526;-84
2022/05/23 18:39:19;;;;;;;9.82;4.57;;;;;;;22.38;74.57;98136.78;12225632;19;20417;-85
2022/05/23 18:43:24;;;;;;;7.03;4.55;;;;;;;22.28;74.85;98157.03;12208252;19;20448;-85
2022/05/23 18:47:27;;;;;;;10.43;3.55;;;;;;;22.17;76.64;98179.22;12221375;19;20083;-85
2022/05/23 18:51:29;;;;;;;7.10;2.00;;;;;;;21.83;71.53;98217.25;12205790;19;20084;-87
2022/05/23 18:55:33;;;;;;;3.90;0.98;;;;;;;21.16;74.02;98233.91;12218031;19;20021;-82
2022/05/23 18:59:35;;;;;;;3.38;0.95;;;;;;;20.13;80.08;98242.84;12221052;19;20034;-82
2022/05/23 19:03:38;;;;;;;9.30;1.75;;;;;;;19.16;92.26;98252.75;12193110;19;20010;-81
2022/05/23 19:07:45;;;;;;;8.27;2.03;;;;;;;18.55;94.46;98247.69;12209730;19;20002;-80
2022/05/23 19:11:47;;;;;;;5.05;2.08;;;;;;;18.04;100.00;98253.31;12210483;19;20011;-79
2022/05/23 19:15:49;;;;;;;4.68;2.05;;;;;;;17.80;100.00;98255.91;12185948;19;20011;-79
2022/05/23 19:19:50;;;;;;;6.07;2.42;;;;;;;17.64;100.00;98270.38;12205779;19;20200;-79
2022/05/23 19:23:53;;;;;;;7.13;1.83;;;;;;;17.51;100.00;98291.69;12207518;19;20010;-79
2022/05/23 19:27:56;;;;;;;4.55;1.90;;;;;;;17.45;100.00;98308.94;12184638;19;20150;-80
2022/05/23 19:31:58;;;;;;;;;;;;;;;17.42;100.00;98306.81;12205829;19;20122;-79
2022/05/23 19:36:00;;;;;;;4.75;1.98;;;;;;;17.35;100.00;98320.44;12209759;19;19974;-80
2022/05/23 19:40:05;;;;;;;7.68;3.17;;;;;;;17.30;100.00;98322.22;12194130;19;20357;-80
2022/05/23 19:44:08;;;;;;;4.93;2.60;;;;;;;17.28;100.00;98327.31;12217475;19;20458;-81
2022/05/23 19:48:10;;;;;;;7.03;2.53;;;;;;;17.32;100.00;98321.91;12218712;19;20520;-81
2022/05/23 19:52:12;;;;;;;3.53;2.30;;;;;;;17.36;100.00;98330.41;12187172;19;20017;-80
2022/05/23 19:56:14;;;;;;;8.60;2.28;;;;;;;17.38;100.00;98331.72;12207443;19;20069;-80
2022/05/23 20:00:35;;;;;;;6.20;3.50;;;;;;;17.44;100.00;98335.16;12186483;19;20020;-80
2022/05/23 20:09:00;;;;;;;4.53;2.45;;;;;;;17.49;100.00;98351.66;12211455;19;20088;-81
2022/05/23 20:13:03;;;;;;;3.72;2.22;;;;;;;17.50;100.00;98339.38;12186236;19;20354;-80
2022/05/23 20:17:07;;;;;;;7.45;2.60;;;;;;;17.52;100.00;98351.03;12209598;19;20022;-81
2022/05/23 20:21:09;;;;;;;4.63;2.10;;;;;;;17.59;100.00;98359.69;12210012;19;20608;-82
2022/05/23 20:25:12;;;;;;;4.50;2.07;;;;;;;17.62;100.00;98369.34;12192942;19;20022;-83
2022/05/23 20:29:13;;;;;;;6.30;2.13;;;;;;;17.66;100.00;98364.72;12202472;19;20260;-82
2022/05/23 20:33:15;;;;;;;7.03;2.40;;;;;;;17.68;100.00;98368.81;12223404;19;20021;-82
2022/05/23 20:37:17;;;;;;;3.65;1.90;;;;;;;17.73;100.00;98353.91;12196312;19;20030;-84
2022/05/23 20:41:20;;;;;;;4.30;2.15;;;;;;;17.72;100.00;98374.53;12212026;19;20475;-83
2022/05/23 20:45:23;;;;;;;3.20;1.98;;;;;;;17.72;100.00;98380.94;12217804;19;20020;-83
2022/05/23 20:49:26;;;;;;;3.50;1.83;;;;;;;17.73;100.00;98377.00;12195948;19;20011;-83
2022/05/23 20:53:42;;;;;;;3.95;2.20;;;;;;;17.64;100.00;98383.72;12209833;19;20014;-83
2022/05/23 20:57:48;;;;;;;5.50;2.60;;;;;;;17.58;100.00;98382.28;12191203;19;20122;-84
2022/05/23 21:01:54;;;;;;;6.13;2.40;;;;;;;17.45;100.00;98381.31;12208762;19;20358;-85
2022/05/23 21:05:56;;;;;;;3.22;2.17;;;;;;;17.42;100.00;98384.78;12204081;19;20011;-86